Chesapeake — WDD3041 — position and weather

sailwx.info

Track history (hours):
 
Tides and Currents Weather Stations Pressure Air Temp Water Temp Dewpoint Dewpoint Depression Visibility Wind Speed Wind Dir Waves Ship Positions

Chesapeake

Owner: Vane Line Bunkering, Baltimore, MD. More information available from US FCC via Universal Licensing System and Coast Guard Vessel Documentation Center.

Last reported at 2017-Jan-17 18:33 UTC. Time now 2017-Jan-17 19:13 UTC.
Position N 39°54' W 075°12'.

Length 34 m.

Type: Tug. MMSI: 367123040.

Date/timePositionNaut miles runAvg speedWind from/ knotsBaromVisibWave heightAir tempDewpointWater temp
2017-Jan-17 18:33N 39°54' W 075°12'0 0.0
2017-Jan-17 17:33N 39°54' W 075°12'1 1.0
2017-Jan-17 16:33N 39°55' W 075°13'2 1.5
2017-Jan-17 15:33N 39°53' W 075°12'0 0.0
2017-Jan-17 14:33N 39°53' W 075°12'0 0.0
2017-Jan-17 13:33N 39°53' W 075°12'0 0.0
2017-Jan-17 12:33N 39°53' W 075°12'0 0.0
2017-Jan-17 11:33N 39°53' W 075°12'0 0.0
2017-Jan-17 10:33N 39°53' W 075°12'0 0.0
2017-Jan-17 09:33N 39°53' W 075°12'0 0.0
2017-Jan-17 08:33N 39°53' W 075°12'0 0.0
2017-Jan-17 07:33N 39°53' W 075°12'0 0.0
2017-Jan-17 06:33N 39°53' W 075°12'3 3.3
2017-Jan-17 05:33N 39°51' W 075°15'1 1.0
2017-Jan-17 04:33N 39°51' W 075°16'0 0.0
2017-Jan-17 03:33N 39°51' W 075°16'0 0.0
2017-Jan-17 02:33N 39°51' W 075°16'0 0.0
2017-Jan-17 01:33N 39°51' W 075°16'0 0.0
2017-Jan-17 00:34N 39°51' W 075°16'0 0.1
2017-Jan-16 23:33N 39°51' W 075°16'4 4.0
2017-Jan-16 22:32N 39°50' W 075°21'9 9.1
2017-Jan-16 21:33N 39°44' W 075°30'9 9.0
2017-Jan-16 20:33N 39°36' W 075°34'9 8.7
2017-Jan-16 19:33N 39°27' W 075°33'10 9.7
2017-Jan-16 18:33N 39°20' W 075°25'10 9.9
2017-Jan-16 17:33N 39°12' W 075°17'11 9.5
2017-Jan-16 16:24N 39°02' W 075°10'9 9.6
2017-Jan-16 15:31N 38°55' W 075°05'8 8.4
2017-Jan-16 14:30N 38°48' W 074°58'19 9.7
2017-Jan-16 12:32N 39°01' W 074°39'4310.0
2017-Jan-16 08:17N 39°34' W 074°05'710.2
2017-Jan-16 07:33N 39°41' W 074°01'49 9.8
2017-Jan-16 02:33N 40°30' W 073°56'8 8.1
2017-Jan-16 01:33N 40°36' W 074°03'9 9.1
2017-Jan-16 00:33N 40°45' W 074°01'1111.4
2017-Jan-15 23:33N 40°56' W 073°55'23 0.5
2017-Jan-13 23:33N 40°34' W 074°02'6 6.1
2017-Jan-13 22:33N 40°30' W 073°55'39 6.5
2017-Jan-13 16:32N 39°50' W 073°57'7 6.8
2017-Jan-13 15:33N 39°44' W 073°59'9 6.9
2017-Jan-13 14:14N 39°36' W 074°04'5 6.8
2017-Jan-13 13:33N 39°31' W 074°06'7 6.9
2017-Jan-13 12:33N 39°25' W 074°11'7 6.9
2017-Jan-13 11:32N 39°20' W 074°17'7 7.0
2017-Jan-13 10:32N 39°15' W 074°23'41 4.3
2017-Jan-13 01:04N 39°10' W 075°15'3 5.2
2017-Jan-13 00:33N 39°12' W 075°17'6 6.1
2017-Jan-12 23:33N 39°17' W 075°22'5 5.4
2017-Jan-12 22:33N 39°21' W 075°26'8 8.0
2017-Jan-12 21:33N 39°27' W 075°33'7 6.6
2017-Jan-12 20:33N 39°33' W 075°33'6 6.2
2017-Jan-12 19:33N 39°40' W 075°33'6 6.3
2017-Jan-12 18:33N 39°45' W 075°29'5 5.2
2017-Jan-12 17:33N 39°49' W 075°24'5 5.0
2017-Jan-12 16:33N 39°51' W 075°18'4 4.5
2017-Jan-12 15:33N 39°52' W 075°13'1 1.4
2017-Jan-12 14:33N 39°54' W 075°12'0 0.0
2017-Jan-12 13:33N 39°54' W 075°12'0 0.0
2017-Jan-12 12:33N 39°54' W 075°12'0 0.0
2017-Jan-12 11:33N 39°54' W 075°12'0 0.0
2017-Jan-12 10:33N 39°54' W 075°12'0 0.0
2017-Jan-12 09:33N 39°54' W 075°12'0 0.0
2017-Jan-12 08:33N 39°54' W 075°12'0 0.0
2017-Jan-12 07:33N 39°54' W 075°12'0 0.0
2017-Jan-12 06:33N 39°54' W 075°12'0 0.0
2017-Jan-12 05:33N 39°54' W 075°12'0 0.1
2017-Jan-12 04:33N 39°54' W 075°12'0 0.1
2017-Jan-12 03:33N 39°54' W 075°12'0 0.0
2017-Jan-12 02:33N 39°54' W 075°12'0 0.0
2017-Jan-12 01:33N 39°54' W 075°12'0 0.0
2017-Jan-12 00:33N 39°54' W 075°12'0 0.0
2017-Jan-11 23:33N 39°54' W 075°12'0 0.0
2017-Jan-11 22:33N 39°54' W 075°12'0 0.0
2017-Jan-11 21:33N 39°54' W 075°12'0 0.0
2017-Jan-11 20:33N 39°54' W 075°12'0 0.0
2017-Jan-11 19:33N 39°54' W 075°12'0 0.0
2017-Jan-11 18:33N 39°54' W 075°12'0 0.0
2017-Jan-11 17:33N 39°54' W 075°12'0 0.0
2017-Jan-11 16:33N 39°54' W 075°12'0 0.0
2017-Jan-11 15:33N 39°54' W 075°12'0 0.0
2017-Jan-11 14:33N 39°54' W 075°12'0 0.0
2017-Jan-11 13:33N 39°54' W 075°12'4 4.0
2017-Jan-11 12:33N 39°51' W 075°16'2 1.7
2017-Jan-11 11:33N 39°51' W 075°18'9 8.6
2017-Jan-11 10:33N 39°47' W 075°28'9 8.6
2017-Jan-11 09:33N 39°39' W 075°33'7 6.7
2017-Jan-11 08:33N 39°33' W 075°38'1010.2
2017-Jan-11 07:33N 39°32' W 075°51'10 9.5
2017-Jan-11 06:33N 39°26' W 076°00'9 8.5
2017-Jan-11 05:33N 39°21' W 076°10'9 8.2
2017-Jan-11 04:27N 39°13' W 076°15'6 6.8
2017-Jan-11 03:33N 39°09' W 076°21'9 8.8
2017-Jan-11 02:33N 39°12' W 076°31'5 4.8
2017-Jan-11 01:33N 39°16' W 076°34'0 0.0
2017-Jan-11 00:33N 39°16' W 076°34'2 1.8
2017-Jan-10 23:33N 39°15' W 076°34'0 0.0
2017-Jan-10 22:33N 39°15' W 076°34'0 0.0
2017-Jan-10 21:33N 39°15' W 076°34'0 0.0
2017-Jan-10 20:33N 39°15' W 076°34'0 0.0
2017-Jan-10 19:33N 39°15' W 076°34'0 0.0
2017-Jan-10 18:33N 39°15' W 076°34'0 0.0
2017-Jan-10 17:33N 39°15' W 076°34'0 0.0
2017-Jan-10 16:33N 39°15' W 076°34'0 0.0
2017-Jan-10 15:33N 39°15' W 076°34'0 0.0
2017-Jan-10 14:33N 39°15' W 076°34'1 0.7
2017-Jan-10 13:33N 39°15' W 076°34'0 0.3
2017-Jan-10 12:33N 39°15' W 076°34'1 0.8
2017-Jan-10 11:33N 39°15' W 076°33'0 0.0
2017-Jan-10 10:32N 39°15' W 076°33'0 0.0
2017-Jan-10 09:33N 39°15' W 076°33'0 0.0
2017-Jan-10 08:33N 39°15' W 076°33'0 0.0
2017-Jan-10 07:31N 39°15' W 076°33'0 0.0
2017-Jan-10 06:32N 39°15' W 076°33'0 0.0
2017-Jan-10 05:33N 39°15' W 076°33'0 0.0
2017-Jan-10 04:33N 39°15' W 076°33'0 0.0
2017-Jan-10 03:33N 39°15' W 076°33'0 0.0
2017-Jan-10 02:32N 39°15' W 076°33'0 0.0
2017-Jan-10 01:30N 39°15' W 076°33'0 0.0
2017-Jan-10 00:30N 39°15' W 076°33'0 0.0
2017-Jan-09 23:33N 39°15' W 076°33'0 0.0
2017-Jan-09 22:33N 39°15' W 076°33'0 0.0
2017-Jan-09 21:33N 39°15' W 076°33'0 0.0
2017-Jan-09 20:33N 39°15' W 076°33'0 0.0
2017-Jan-09 19:33N 39°15' W 076°33'0 0.0
2017-Jan-09 18:33N 39°15' W 076°33'1 1.2
2017-Jan-09 17:33N 39°14' W 076°33'8 8.5
2017-Jan-09 16:33N 39°10' W 076°23'8 7.6
2017-Jan-09 15:33N 39°14' W 076°15'9 9.5
2017-Jan-09 14:33N 39°22' W 076°09'9 9.5
2017-Jan-09 13:33N 39°27' W 075°59'9 9.1
2017-Jan-09 12:33N 39°32' W 075°48'10 9.6
2017-Jan-09 11:33N 39°33' W 075°36'6 5.5
2017-Jan-09 10:33N 39°39' W 075°34'8 8.3
2017-Jan-09 09:33N 39°46' W 075°29'10 9.8
2017-Jan-09 08:33N 39°51' W 075°18'3 3.2
2017-Jan-09 07:33N 39°52' W 075°14'2 2.1
2017-Jan-09 06:33N 39°54' W 075°12'0 0.0
2017-Jan-09 05:33N 39°54' W 075°12'0 0.0
2017-Jan-09 04:33N 39°54' W 075°12'0 0.0
2017-Jan-09 03:33N 39°54' W 075°12'0 0.0
2017-Jan-09 02:33N 39°54' W 075°12'0 0.0
2017-Jan-09 01:33N 39°54' W 075°12'0 0.0
2017-Jan-09 00:33N 39°54' W 075°12'0 0.0
2017-Jan-08 23:33N 39°54' W 075°12'0 0.0
2017-Jan-08 22:33N 39°54' W 075°12'0 0.0
2017-Jan-08 21:33N 39°54' W 075°12'0 0.0
2017-Jan-08 20:33N 39°54' W 075°12'0 0.0
2017-Jan-08 19:33N 39°54' W 075°12'0 0.0
2017-Jan-08 18:33N 39°54' W 075°12'0 0.0
2017-Jan-08 17:33N 39°54' W 075°12'0 0.0
2017-Jan-08 16:33N 39°54' W 075°12'0 0.0
2017-Jan-08 15:33N 39°54' W 075°12'4 4.0
2017-Jan-08 14:33N 39°51' W 075°16'4 4.0
2017-Jan-08 13:33N 39°54' W 075°13'0 0.4
2017-Jan-08 12:33N 39°54' W 075°13'1 0.8
2017-Jan-08 11:33N 39°54' W 075°12'0 0.0
2017-Jan-08 10:33N 39°54' W 075°12'0 0.0
2017-Jan-08 09:33N 39°54' W 075°12'0 0.4
2017-Jan-08 08:33N 39°54' W 075°12'9 8.8
2017-Jan-08 07:33N 39°50' W 075°22'2 2.3
2017-Jan-08 06:33N 39°48' W 075°24'0 0.0
2017-Jan-08 05:33N 39°48' W 075°24'0 0.0
2017-Jan-08 04:33N 39°48' W 075°24'0 0.0
2017-Jan-08 03:33N 39°48' W 075°24'0 0.1
2017-Jan-08 02:33N 39°48' W 075°24'0 0.0
2017-Jan-08 01:33N 39°48' W 075°24'0 0.0
2017-Jan-08 00:33N 39°48' W 075°24'0 0.0
2017-Jan-07 23:33N 39°48' W 075°24'0 0.0
2017-Jan-07 22:33N 39°48' W 075°24'0 0.0
2017-Jan-07 21:33N 39°48' W 075°24'2 2.0
2017-Jan-07 20:33N 39°48' W 075°27'9 9.4
2017-Jan-07 19:33N 39°39' W 075°33'8 7.6
2017-Jan-07 18:33N 39°32' W 075°33'  
Track history (hours):
 
Tides and Currents Weather Stations Pressure Air Temp Water Temp Dewpoint Dewpoint Depression Visibility Wind Speed Wind Dir Waves Ship Positions

Chesapeake

Owner: Vane Line Bunkering, Baltimore, MD. More information available from US FCC via Universal Licensing System and Coast Guard Vessel Documentation Center.

Last reported at 2017-Jan-17 18:33 UTC. Time now 2017-Jan-17 19:13 UTC.
Position N 39°54' W 075°12'.

Length 34 m.

Type: Tug. MMSI: 367123040.

Date/timePositionNaut miles runAvg speedWind from/ knotsBaromVisibWave heightAir tempDewpointWater temp
2017-Jan-17 18:33N 39°54' W 075°12'0 0.0
2017-Jan-17 17:33N 39°54' W 075°12'1 1.0
2017-Jan-17 16:33N 39°55' W 075°13'2 1.5
2017-Jan-17 15:33N 39°53' W 075°12'0 0.0
2017-Jan-17 14:33N 39°53' W 075°12'0 0.0
2017-Jan-17 13:33N 39°53' W 075°12'0 0.0
2017-Jan-17 12:33N 39°53' W 075°12'0 0.0
2017-Jan-17 11:33N 39°53' W 075°12'0 0.0
2017-Jan-17 10:33N 39°53' W 075°12'0 0.0
2017-Jan-17 09:33N 39°53' W 075°12'0 0.0
2017-Jan-17 08:33N 39°53' W 075°12'0 0.0
2017-Jan-17 07:33N 39°53' W 075°12'0 0.0
2017-Jan-17 06:33N 39°53' W 075°12'3 3.3
2017-Jan-17 05:33N 39°51' W 075°15'1 1.0
2017-Jan-17 04:33N 39°51' W 075°16'0 0.0
2017-Jan-17 03:33N 39°51' W 075°16'0 0.0
2017-Jan-17 02:33N 39°51' W 075°16'0 0.0
2017-Jan-17 01:33N 39°51' W 075°16'0 0.0
2017-Jan-17 00:34N 39°51' W 075°16'0 0.1
2017-Jan-16 23:33N 39°51' W 075°16'4 4.0
2017-Jan-16 22:32N 39°50' W 075°21'9 9.1
2017-Jan-16 21:33N 39°44' W 075°30'9 9.0
2017-Jan-16 20:33N 39°36' W 075°34'9 8.7
2017-Jan-16 19:33N 39°27' W 075°33'10 9.7
2017-Jan-16 18:33N 39°20' W 075°25'10 9.9
2017-Jan-16 17:33N 39°12' W 075°17'11 9.5
2017-Jan-16 16:24N 39°02' W 075°10'9 9.6
2017-Jan-16 15:31N 38°55' W 075°05'8 8.4
2017-Jan-16 14:30N 38°48' W 074°58'19 9.7
2017-Jan-16 12:32N 39°01' W 074°39'4310.0
2017-Jan-16 08:17N 39°34' W 074°05'710.2
2017-Jan-16 07:33N 39°41' W 074°01'49 9.8
2017-Jan-16 02:33N 40°30' W 073°56'8 8.1
2017-Jan-16 01:33N 40°36' W 074°03'9 9.1
2017-Jan-16 00:33N 40°45' W 074°01'1111.4
2017-Jan-15 23:33N 40°56' W 073°55'23 0.5
2017-Jan-13 23:33N 40°34' W 074°02'6 6.1
2017-Jan-13 22:33N 40°30' W 073°55'39 6.5
2017-Jan-13 16:32N 39°50' W 073°57'7 6.8
2017-Jan-13 15:33N 39°44' W 073°59'9 6.9
2017-Jan-13 14:14N 39°36' W 074°04'5 6.8
2017-Jan-13 13:33N 39°31' W 074°06'7 6.9
2017-Jan-13 12:33N 39°25' W 074°11'7 6.9
2017-Jan-13 11:32N 39°20' W 074°17'7 7.0
2017-Jan-13 10:32N 39°15' W 074°23'41 4.3
2017-Jan-13 01:04N 39°10' W 075°15'3 5.2
2017-Jan-13 00:33N 39°12' W 075°17'6 6.1
2017-Jan-12 23:33N 39°17' W 075°22'5 5.4
2017-Jan-12 22:33N 39°21' W 075°26'8 8.0
2017-Jan-12 21:33N 39°27' W 075°33'7 6.6
2017-Jan-12 20:33N 39°33' W 075°33'6 6.2
2017-Jan-12 19:33N 39°40' W 075°33'6 6.3
2017-Jan-12 18:33N 39°45' W 075°29'5 5.2
2017-Jan-12 17:33N 39°49' W 075°24'5 5.0
2017-Jan-12 16:33N 39°51' W 075°18'4 4.5
2017-Jan-12 15:33N 39°52' W 075°13'1 1.4
2017-Jan-12 14:33N 39°54' W 075°12'0 0.0
2017-Jan-12 13:33N 39°54' W 075°12'0 0.0
2017-Jan-12 12:33N 39°54' W 075°12'0 0.0
2017-Jan-12 11:33N 39°54' W 075°12'0 0.0
2017-Jan-12 10:33N 39°54' W 075°12'0 0.0
2017-Jan-12 09:33N 39°54' W 075°12'0 0.0
2017-Jan-12 08:33N 39°54' W 075°12'0 0.0
2017-Jan-12 07:33N 39°54' W 075°12'0 0.0
2017-Jan-12 06:33N 39°54' W 075°12'0 0.0
2017-Jan-12 05:33N 39°54' W 075°12'0 0.1
2017-Jan-12 04:33N 39°54' W 075°12'0 0.1
2017-Jan-12 03:33N 39°54' W 075°12'0 0.0
2017-Jan-12 02:33N 39°54' W 075°12'0 0.0
2017-Jan-12 01:33N 39°54' W 075°12'0 0.0
2017-Jan-12 00:33N 39°54' W 075°12'0 0.0
2017-Jan-11 23:33N 39°54' W 075°12'0 0.0
2017-Jan-11 22:33N 39°54' W 075°12'0 0.0
2017-Jan-11 21:33N 39°54' W 075°12'0 0.0
2017-Jan-11 20:33N 39°54' W 075°12'0 0.0
2017-Jan-11 19:33N 39°54' W 075°12'0 0.0
2017-Jan-11 18:33N 39°54' W 075°12'0 0.0
2017-Jan-11 17:33N 39°54' W 075°12'0 0.0
2017-Jan-11 16:33N 39°54' W 075°12'0 0.0
2017-Jan-11 15:33N 39°54' W 075°12'0 0.0
2017-Jan-11 14:33N 39°54' W 075°12'0 0.0
2017-Jan-11 13:33N 39°54' W 075°12'4 4.0
2017-Jan-11 12:33N 39°51' W 075°16'2 1.7
2017-Jan-11 11:33N 39°51' W 075°18'9 8.6
2017-Jan-11 10:33N 39°47' W 075°28'9 8.6
2017-Jan-11 09:33N 39°39' W 075°33'7 6.7
2017-Jan-11 08:33N 39°33' W 075°38'1010.2
2017-Jan-11 07:33N 39°32' W 075°51'10 9.5
2017-Jan-11 06:33N 39°26' W 076°00'9 8.5
2017-Jan-11 05:33N 39°21' W 076°10'9 8.2
2017-Jan-11 04:27N 39°13' W 076°15'6 6.8
2017-Jan-11 03:33N 39°09' W 076°21'9 8.8
2017-Jan-11 02:33N 39°12' W 076°31'5 4.8
2017-Jan-11 01:33N 39°16' W 076°34'0 0.0
2017-Jan-11 00:33N 39°16' W 076°34'2 1.8
2017-Jan-10 23:33N 39°15' W 076°34'0 0.0
2017-Jan-10 22:33N 39°15' W 076°34'0 0.0
2017-Jan-10 21:33N 39°15' W 076°34'0 0.0
2017-Jan-10 20:33N 39°15' W 076°34'0 0.0
2017-Jan-10 19:33N 39°15' W 076°34'0 0.0
2017-Jan-10 18:33N 39°15' W 076°34'0 0.0
2017-Jan-10 17:33N 39°15' W 076°34'0 0.0
2017-Jan-10 16:33N 39°15' W 076°34'0 0.0
2017-Jan-10 15:33N 39°15' W 076°34'0 0.0
2017-Jan-10 14:33N 39°15' W 076°34'1 0.7
2017-Jan-10 13:33N 39°15' W 076°34'0 0.3
2017-Jan-10 12:33N 39°15' W 076°34'1 0.8
2017-Jan-10 11:33N 39°15' W 076°33'0 0.0
2017-Jan-10 10:32N 39°15' W 076°33'0 0.0
2017-Jan-10 09:33N 39°15' W 076°33'0 0.0
2017-Jan-10 08:33N 39°15' W 076°33'0 0.0
2017-Jan-10 07:31N 39°15' W 076°33'0 0.0
2017-Jan-10 06:32N 39°15' W 076°33'0 0.0
2017-Jan-10 05:33N 39°15' W 076°33'0 0.0
2017-Jan-10 04:33N 39°15' W 076°33'0 0.0
2017-Jan-10 03:33N 39°15' W 076°33'0 0.0
2017-Jan-10 02:32N 39°15' W 076°33'0 0.0
2017-Jan-10 01:30N 39°15' W 076°33'0 0.0
2017-Jan-10 00:30N 39°15' W 076°33'0 0.0
2017-Jan-09 23:33N 39°15' W 076°33'0 0.0
2017-Jan-09 22:33N 39°15' W 076°33'0 0.0
2017-Jan-09 21:33N 39°15' W 076°33'0 0.0
2017-Jan-09 20:33N 39°15' W 076°33'0 0.0
2017-Jan-09 19:33N 39°15' W 076°33'0 0.0
2017-Jan-09 18:33N 39°15' W 076°33'1 1.2
2017-Jan-09 17:33N 39°14' W 076°33'8 8.5
2017-Jan-09 16:33N 39°10' W 076°23'8 7.6
2017-Jan-09 15:33N 39°14' W 076°15'9 9.5
2017-Jan-09 14:33N 39°22' W 076°09'9 9.5
2017-Jan-09 13:33N 39°27' W 075°59'9 9.1
2017-Jan-09 12:33N 39°32' W 075°48'10 9.6
2017-Jan-09 11:33N 39°33' W 075°36'6 5.5
2017-Jan-09 10:33N 39°39' W 075°34'8 8.3
2017-Jan-09 09:33N 39°46' W 075°29'10 9.8
2017-Jan-09 08:33N 39°51' W 075°18'3 3.2
2017-Jan-09 07:33N 39°52' W 075°14'2 2.1
2017-Jan-09 06:33N 39°54' W 075°12'0 0.0
2017-Jan-09 05:33N 39°54' W 075°12'0 0.0
2017-Jan-09 04:33N 39°54' W 075°12'0 0.0
2017-Jan-09 03:33N 39°54' W 075°12'0 0.0
2017-Jan-09 02:33N 39°54' W 075°12'0 0.0
2017-Jan-09 01:33N 39°54' W 075°12'0 0.0
2017-Jan-09 00:33N 39°54' W 075°12'0 0.0
2017-Jan-08 23:33N 39°54' W 075°12'0 0.0
2017-Jan-08 22:33N 39°54' W 075°12'0 0.0
2017-Jan-08 21:33N 39°54' W 075°12'0 0.0
2017-Jan-08 20:33N 39°54' W 075°12'0 0.0
2017-Jan-08 19:33N 39°54' W 075°12'0 0.0
2017-Jan-08 18:33N 39°54' W 075°12'0 0.0
2017-Jan-08 17:33N 39°54' W 075°12'0 0.0
2017-Jan-08 16:33N 39°54' W 075°12'0 0.0
2017-Jan-08 15:33N 39°54' W 075°12'4 4.0
2017-Jan-08 14:33N 39°51' W 075°16'4 4.0
2017-Jan-08 13:33N 39°54' W 075°13'0 0.4
2017-Jan-08 12:33N 39°54' W 075°13'1 0.8
2017-Jan-08 11:33N 39°54' W 075°12'0 0.0
2017-Jan-08 10:33N 39°54' W 075°12'0 0.0
2017-Jan-08 09:33N 39°54' W 075°12'0 0.4
2017-Jan-08 08:33N 39°54' W 075°12'9 8.8
2017-Jan-08 07:33N 39°50' W 075°22'2 2.3
2017-Jan-08 06:33N 39°48' W 075°24'0 0.0
2017-Jan-08 05:33N 39°48' W 075°24'0 0.0
2017-Jan-08 04:33N 39°48' W 075°24'0 0.0
2017-Jan-08 03:33N 39°48' W 075°24'0 0.1
2017-Jan-08 02:33N 39°48' W 075°24'0 0.0
2017-Jan-08 01:33N 39°48' W 075°24'0 0.0
2017-Jan-08 00:33N 39°48' W 075°24'0 0.0
2017-Jan-07 23:33N 39°48' W 075°24'0 0.0
2017-Jan-07 22:33N 39°48' W 075°24'0 0.0
2017-Jan-07 21:33N 39°48' W 075°24'2 2.0
2017-Jan-07 20:33N 39°48' W 075°27'9 9.4
2017-Jan-07 19:33N 39°39' W 075°33'8 7.6
2017-Jan-07 18:33N 39°32' W 075°33'  

Dump ship's entire track history